Inchelium, Washington
Current Conditions -  °F | °C
As of 4:53 AM on Thursday 27 Nov 2014 (Local Time) from KDEW Reporting Station
Overcast Overcast  
Wind Chill: 39°   Ceiling: 7000
Heat Index: 39°   Visibility: 10mi
Dew Point: 38°   Wind: 3mph
Humidity: 96%   Direction: 150°SSE
Pressure: 29.88"   Gusts: NA
Location:  48.34°N, 118.25°W
Report Text: KDEW 271253Z AUTO 15003KT 10SM OVC070 04/03 A2988 RMK AO2 SLP131 T00390033
Loading
Personal Weather Stations






























Interactive Weather Map New forecast layout! Learn more

10-Day Weather Forecast

Advertisements
Track Severe Weather on mobile